Time;durP1;ratioP1;P1;durP2;ratioP2;P2;SDS_P1;SDS_P2;PMS_P1;PMS_P2;Temp;Humidity;BMP_temperature;BMP_pressure;BME280_temperature;BME280_humidity;BME280_pressure;Samples;Min_cycle;Max_cycle;Signal;HPM_P1;HPM_P2
2024/03/29 01:43:57;;;;;;;2.30;1.53;;;5.80;79.20;;;4.97;79.20;96405.84;5012368;28;20540;-79
2024/03/29 01:46:25;;;;;;;1.63;1.40;;;5.80;79.10;;;4.97;79.04;96388.97;5033130;28;20464;-79
2024/03/29 01:48:54;;;;;;;1.63;1.50;;;5.80;78.90;;;4.99;78.98;96384.22;5031289;28;20829;-79
2024/03/29 01:51:22;;;;;;;3.13;1.50;;;5.80;79.00;;;5.02;78.64;96393.69;5034609;28;20486;-79
2024/03/29 01:53:54;;;;;;;1.73;1.57;;;5.80;78.70;;;4.89;78.85;96394.59;5033031;28;20486;-78
2024/03/29 01:56:23;;;;;;;1.87;1.57;;;5.90;78.70;;;4.85;79.26;96382.69;5035463;28;20490;-79
2024/03/29 01:58:53;;;;;;;1.90;1.53;;;5.90;78.50;;;4.91;78.35;96400.56;5026275;28;20485;-79
2024/03/29 02:01:21;;;;;;;4.00;1.63;;;5.90;78.10;;;4.91;78.44;96401.38;5026732;28;20902;-80
2024/03/29 02:03:48;;;;;;;2.27;1.67;;;6.00;78.20;;;4.91;78.08;96392.53;5029855;28;21000;-78
2024/03/29 02:06:16;;;;;;;2.60;1.73;;;6.00;77.90;;;4.98;77.75;96387.94;5030357;28;20481;-79
2024/03/29 02:08:43;;;;;;;2.77;2.10;;;6.00;77.80;;;4.95;77.97;96389.19;5025457;28;20521;-79
2024/03/29 02:11:12;;;;;;;2.13;1.50;;;6.00;77.60;;;4.97;77.80;96376.41;5025560;28;20902;-78
2024/03/29 02:13:40;;;;;;;4.63;1.80;;;6.00;77.40;;;4.90;77.41;96372.16;5058635;28;20475;-79
2024/03/29 02:16:07;;;;;;;2.40;1.80;;;6.10;77.40;;;5.05;77.10;96371.81;5045112;28;20476;-79
2024/03/29 02:18:34;;;;;;;3.63;1.90;;;6.10;77.40;;;5.01;77.37;96366.09;5044116;28;20536;-79
2024/03/29 02:21:02;;;;;;;3.00;1.93;;;6.10;77.20;;;5.19;76.78;96389.41;5045296;28;20470;-79
2024/03/29 02:23:33;;;;;;;3.00;1.70;;;6.20;77.10;;;5.13;76.23;96376.06;5042706;28;20932;-79
2024/03/29 02:26:02;;;;;;;2.40;1.50;;;6.20;76.90;;;5.15;76.02;96376.66;5046796;28;20466;-79
2024/03/29 02:28:29;;;;;;;2.00;1.70;;;6.10;76.80;;;5.27;76.02;96385.63;5045825;28;20491;-79
2024/03/29 02:30:57;;;;;;;2.60;1.40;;;6.20;76.60;;;5.45;74.78;96378.63;5042406;28;20971;-79
2024/03/29 02:33:24;;;;;;;2.10;1.37;;;6.30;76.50;;;5.39;74.83;96370.44;5043245;28;20474;-80
2024/03/29 02:35:51;;;;;;;1.67;1.40;;;6.30;76.30;;;5.55;74.35;96375.44;5045815;28;21147;-78
2024/03/29 02:38:18;;;;;;;1.50;1.27;;;6.30;76.10;;;5.54;73.42;96366.59;5046004;28;20957;-79
2024/03/29 02:40:45;;;;;;;1.10;1.00;;;6.40;76.00;;;5.36;73.85;96362.03;5046029;28;20752;-79
2024/03/29 02:43:14;;;;;;;2.23;1.30;;;6.30;75.60;;;5.37;74.13;96348.41;5045610;28;20471;-79
2024/03/29 02:45:41;;;;;;;2.00;1.40;;;6.40;75.70;;;5.44;73.05;96358.25;5046808;28;20523;-78
2024/03/29 02:48:08;;;;;;;1.37;1.00;;;6.40;75.30;;;5.51;73.09;96362.47;5046962;28;20487;-78
2024/03/29 02:50:35;;;;;;;1.10;1.00;;;6.50;75.30;;;5.52;72.59;96355.25;5050242;28;20816;-78
2024/03/29 02:53:01;;;;;;;1.73;1.00;;;6.50;74.90;;;5.44;72.97;96350.22;5046023;28;20474;-79
2024/03/29 02:55:28;;;;;;;1.37;1.27;;;6.50;74.90;;;5.71;72.58;96352.59;5046883;28;20512;-79
2024/03/29 02:57:54;;;;;;;1.33;1.07;;;6.50;74.90;;;5.63;72.19;96346.47;5045024;28;20479;-78
2024/03/29 03:00:23;;;;;;;1.57;1.20;;;6.50;74.60;;;5.47;71.81;96344.41;5043848;28;21040;-81
2024/03/29 03:02:49;;;;;;;1.77;1.10;;;6.50;74.30;;;5.57;71.65;96352.75;5033855;28;20472;-79
2024/03/29 03:05:17;;;;;;;2.37;1.00;;;6.60;74.30;;;5.64;71.52;96350.78;5030167;28;20477;-79
2024/03/29 03:13:13;;;;;;;1.43;0.90;;;6.70;73.80;;;5.77;70.55;96340.94;5039581;28;20557;-79
2024/03/29 03:15:41;;;;;;;1.50;1.20;;;6.70;73.50;;;5.68;70.34;96346.59;5030561;28;20503;-79
2024/03/29 03:18:08;;;;;;;1.93;0.80;;;6.70;73.30;;;5.77;70.19;96340.94;5039035;28;20460;-80
2024/03/29 03:20:37;;;;;;;1.17;0.90;;;6.70;73.10;;;5.79;70.29;96346.91;5039478;28;20484;-79
2024/03/29 03:23:04;;;;;;;1.97;1.17;;;6.70;73.00;;;5.79;69.97;96325.47;5030970;28;20492;-79
2024/03/29 03:25:31;;;;;;;1.03;0.80;;;6.80;72.70;;;5.76;69.38;96320.56;5040031;28;20537;-79
2024/03/29 03:27:57;;;;;;;0.90;0.90;;;6.70;72.40;;;5.75;69.76;96332.31;5030990;28;21016;-79
2024/03/29 03:30:25;;;;;;;1.40;0.90;;;6.80;72.70;;;5.74;69.40;96311.94;5049843;28;20482;-79
2024/03/29 03:32:52;;;;;;;2.17;1.07;;;6.80;72.30;;;5.81;69.74;96323.38;5029453;28;20487;-79
2024/03/29 03:35:19;;;;;;;1.63;1.20;;;6.80;72.40;;;5.91;68.71;96347.78;5038411;28;20545;-79
2024/03/29 03:37:46;;;;;;;1.30;1.10;;;6.90;72.10;;;5.86;68.84;96349.50;5034132;28;21056;-79
2024/03/29 03:40:13;;;;;;;2.63;1.37;;;6.90;71.90;;;5.83;69.09;96350.75;5033750;28;20485;-79
2024/03/29 03:42:39;;;;;;;2.97;1.00;;;6.80;71.70;;;5.90;68.20;96350.66;5028979;28;20471;-80
2024/03/29 03:45:07;;;;;;;1.40;0.73;;;6.90;71.70;;;5.89;67.99;96341.00;5029617;28;20473;-79
2024/03/29 03:47:33;;;;;;;1.30;1.03;;;6.90;71.50;;;5.93;68.12;96348.34;5037151;28;20553;-80
2024/03/29 03:50:02;;;;;;;1.63;1.13;;;6.90;71.30;;;5.94;68.21;96350.00;5018704;28;20496;-80
2024/03/29 03:52:29;;;;;;;2.20;1.20;;;6.90;71.10;;;5.94;68.04;96331.22;5028988;28;20927;-78
2024/03/29 03:54:56;;;;;;;2.20;1.40;;;6.90;70.90;;;5.95;67.85;96332.88;5034095;28;20477;-79
2024/03/29 03:57:23;;;;;;;1.07;0.97;;;6.90;70.70;;;5.96;67.37;96342.53;5029912;28;20557;-80
2024/03/29 03:59:50;;;;;;;1.63;0.70;;;7.00;70.50;;;5.71;67.35;96293.63;5036274;28;20483;-78
2024/03/29 04:02:17;;;;;;;1.30;1.10;;;7.00;70.70;;;5.98;67.21;96336.97;5033484;28;20861;-79
2024/03/29 04:04:48;;;;;;;1.47;1.10;;;6.90;70.50;;;6.05;66.95;96353.00;5041170;28;20529;-79
2024/03/29 04:07:15;;;;;;;1.73;0.90;;;7.00;70.40;;;6.14;66.82;96346.28;5029205;28;20476;-79
2024/03/29 04:09:42;;;;;;;3.07;0.73;;;7.00;70.20;;;6.19;66.01;96333.00;5034901;28;20487;-79
2024/03/29 04:12:08;;;;;;;1.73;1.10;;;7.00;70.10;;;5.66;66.60;96262.94;5037551;28;20491;-78
2024/03/29 04:14:36;;;;;;;1.10;0.73;;;7.00;70.00;;;6.10;66.94;96339.72;5029297;28;20833;-78
2024/03/29 04:17:03;;;;;;;0.80;0.80;;;7.00;70.00;;;6.09;66.65;96343.44;5028417;28;20560;-78
2024/03/29 04:19:30;;;;;;;1.33;0.80;;;7.10;69.80;;;5.65;66.24;96269.34;5038895;28;20482;-79
2024/03/29 04:21:56;;;;;;;0.70;0.70;;;7.10;69.60;;;6.29;65.75;96340.47;5035967;28;20480;-78
2024/03/29 04:24:25;;;;;;;1.20;0.80;;;7.10;69.60;;;6.19;65.61;96329.47;5032490;28;20537;-77
2024/03/29 04:26:51;;;;;;;1.50;1.10;;;7.10;69.30;;;6.18;65.58;96327.84;5029296;28;21737;-79
2024/03/29 04:29:18;;;;;;;1.00;0.90;;;7.10;69.30;;;6.30;65.48;96322.53;5032737;28;20581;-80
2024/03/29 04:31:46;;;;;;;1.60;0.90;;;7.10;69.70;;;6.40;64.84;96338.84;5027245;28;20469;-80
2024/03/29 04:34:13;;;;;;;2.70;0.80;;;7.20;69.20;;;6.37;64.62;96350.88;5030721;28;20507;-79
2024/03/29 04:36:40;;;;;;;0.70;0.70;;;7.20;69.00;;;6.31;65.20;96369.75;5029285;28;20477;-78
2024/03/29 04:39:08;;;;;;;0.97;0.80;;;7.10;69.00;;;6.19;65.60;96349.06;5032705;28;20485;-77
2024/03/29 04:41:36;;;;;;;5.60;1.00;;;7.20;69.20;;;6.18;65.67;96360.84;5035760;28;20470;-80
2024/03/29 04:44:04;;;;;;;2.17;0.80;;;7.20;69.00;;;6.01;66.09;96368.69;5027573;28;20481;-79
2024/03/29 04:46:32;;;;;;;0.90;0.60;;;7.10;68.70;;;6.13;65.59;96367.94;5034220;28;21239;-78
2024/03/29 04:48:59;;;;;;;1.47;1.10;;;7.20;68.70;;;6.20;65.00;96385.56;5030939;28;20497;-78
2024/03/29 04:51:26;;;;;;;1.50;1.00;;;7.20;68.30;;;6.27;64.69;96376.59;5028904;28;20485;-78
2024/03/29 04:53:54;;;;;;;2.23;0.83;;;7.20;68.00;;;6.20;64.87;96350.72;5028891;28;20474;-79
2024/03/29 04:56:21;;;;;;;0.70;0.60;;;7.30;67.90;;;6.33;64.65;96375.72;5038611;28;21339;-79
2024/03/29 04:58:49;;;;;;;1.70;1.10;;;7.30;68.10;;;6.36;64.22;96377.94;5027809;28;20473;-78
2024/03/29 05:01:16;;;;;;;1.53;0.77;;;7.30;67.80;;;6.31;64.19;96400.06;5032107;28;20488;-79
2024/03/29 05:03:43;;;;;;;0.83;0.73;;;7.30;67.70;;;5.84;64.85;96314.88;5046068;28;20469;-79
2024/03/29 05:06:11;;;;;;;0.97;0.60;;;7.30;67.80;;;6.37;64.28;96395.66;5029722;28;20484;-80
2024/03/29 05:08:38;;;;;;;2.27;1.00;;;7.40;67.90;;;6.35;64.82;96417.34;5025064;28;20538;-78
2024/03/29 05:11:05;;;;;;;1.13;0.70;;;7.30;68.00;;;6.38;64.45;96411.53;5039046;28;20480;-78
2024/03/29 05:13:32;;;;;;;1.47;1.10;;;7.40;67.90;;;6.41;65.17;96430.91;5039864;28;20575;-78
2024/03/29 05:16:01;;;;;;;1.77;1.00;;;7.40;68.10;;;6.48;64.90;96437.81;5025797;28;20473;-79
2024/03/29 05:18:28;;;;;;;1.30;1.00;;;7.40;68.10;;;6.47;64.18;96440.72;5027504;28;20597;-78
2024/03/29 05:20:55;;;;;;;2.90;1.00;;;7.40;67.70;;;6.36;64.37;96423.53;5039633;28;20480;-79
2024/03/29 05:23:22;;;;;;;0.90;0.80;;;7.40;67.60;;;6.41;64.79;96426.34;5026759;28;20477;-79
2024/03/29 05:25:50;;;;;;;0.70;0.70;;;7.40;68.00;;;6.47;64.37;96430.81;5028231;28;20515;-78
2024/03/29 05:28:17;;;;;;;1.17;0.77;;;7.40;67.60;;;6.49;64.10;96439.44;5025188;28;20529;-79
2024/03/29 05:30:44;;;;;;;1.67;0.90;;;7.40;67.40;;;6.50;64.13;96451.81;5036620;28;20464;-79
2024/03/29 05:33:13;;;;;;;0.97;0.83;;;7.50;67.70;;;6.48;63.56;96426.25;5035317;28;20467;-78
2024/03/29 05:35:41;;;;;;;1.60;0.93;;;7.50;67.40;;;6.61;63.33;96468.19;5038750;28;20460;-79
2024/03/29 05:38:08;;;;;;;1.23;0.70;;;7.50;67.00;;;6.60;63.23;96448.59;5031996;28;20477;-79
2024/03/29 05:40:35;;;;;;;0.90;0.70;;;7.60;66.90;;;6.47;63.84;96443.41;5033192;28;20468;-79
2024/03/29 05:43:02;;;;;;;1.20;0.63;;;7.50;67.00;;;6.61;63.77;96457.47;5026938;28;21140;-78
2024/03/29 05:45:31;;;;;;;1.37;0.80;;;7.50;67.10;;;6.84;63.12;96423.66;5025916;28;20557;-78
2024/03/29 05:48:00;;;;;;;1.17;0.80;;;7.60;67.10;;;6.80;63.56;96405.34;5034422;28;20501;-78
2024/03/29 05:50:29;;;;;;;1.23;0.70;;;7.60;67.30;;;6.84;62.62;96410.25;5037162;28;20520;-79
2024/03/29 05:52:59;;;;;;;0.80;0.60;;;7.70;66.80;;;6.52;62.87;96373.75;5035782;28;20511;-77
2024/03/29 05:55:26;;;;;;;3.97;0.80;;;7.70;66.60;;;6.98;62.54;96398.25;5035878;28;20477;-77
2024/03/29 05:57:54;;;;;;;1.33;0.77;;;7.80;66.70;;;7.05;62.14;96415.06;5032545;28;20484;-78
2024/03/29 06:00:21;;;;;;;1.50;0.67;;;7.80;66.40;;;7.07;62.04;96417.50;5025417;28;20475;-78
2024/03/29 06:02:48;;;;;;;1.07;0.80;;;7.90;66.40;;;7.24;61.88;96409.59;5030480;28;20482;-79
2024/03/29 06:05:16;;;;;;;1.13;0.50;;;7.90;66.40;;;7.23;61.47;96422.19;5030688;28;20583;-79
2024/03/29 06:07:45;;;;;;;1.30;0.77;;;7.90;66.10;;;6.75;61.67;96373.00;5034446;28;20477;-78
2024/03/29 06:10:14;;;;;;;1.37;0.87;;;7.90;66.00;;;6.92;61.95;96420.66;5033022;28;20475;-78
2024/03/29 06:12:41;;;;;;;0.80;0.80;;;7.90;66.00;;;7.04;62.48;96434.91;5040852;28;20492;-79
2024/03/29 06:17:54;;;;;;;1.00;0.80;;;7.90;66.60;;;6.97;62.41;96420.78;5032758;28;20474;-78
2024/03/29 06:20:22;;;;;;;1.33;1.00;;;7.90;66.80;;;6.77;63.42;96399.59;5030259;28;20484;-80
2024/03/29 06:22:50;;;;;;;1.37;0.93;;;7.70;66.40;;;7.17;62.59;96430.38;5037555;28;20471;-80
2024/03/29 06:25:18;;;;;;;4.50;0.50;;;7.90;66.60;;;7.33;61.59;96448.47;5027125;28;20471;-79
2024/03/29 06:27:47;;;;;;;1.83;1.00;;;8.00;66.60;;;7.33;61.96;96443.09;5032069;28;20477;-78
2024/03/29 06:30:16;;;;;;;0.60;0.60;;;8.10;66.20;;;7.08;61.99;96425.34;5032313;28;20472;-79
2024/03/29 06:32:44;;;;;;;1.13;1.03;;;8.10;65.60;;;7.09;61.85;96426.97;5033430;28;21013;-79
2024/03/29 06:35:12;;;;;;;1.10;0.77;;;8.10;65.70;;;7.30;60.93;96464.25;5045060;28;20588;-79
2024/03/29 06:37:40;;;;;;;0.83;0.83;;;8.20;65.50;;;7.29;61.05;96431.19;5033665;28;20474;-80
2024/03/29 06:40:10;;;;;;;0.90;0.90;;;8.20;65.10;;;7.42;60.45;96430.13;5030721;28;20462;-79
2024/03/29 06:42:39;;;;;;;1.00;1.00;;;8.40;64.70;;;7.47;60.21;96432.13;5043241;28;20531;-77
2024/03/29 06:45:09;;;;;;;1.43;0.80;;;8.40;64.70;;;7.59;59.86;96435.63;5034667;28;20789;-78
2024/03/29 06:47:36;;;;;;;1.30;1.20;;;8.50;64.50;;;7.16;59.80;96389.28;5030115;28;20515;-78
2024/03/29 06:50:04;;;;;;;1.47;0.63;;;8.40;64.30;;;7.26;60.42;96415.53;5041865;28;20488;-77
2024/03/29 06:52:31;;;;;;;0.93;0.60;;;8.20;64.40;;;7.38;60.08;96402.09;5032390;28;20470;-78
2024/03/29 06:54:58;;;;;;;0.80;0.80;;;8.30;64.30;;;7.29;60.62;96390.09;5033433;28;20473;-79
2024/03/29 06:57:31;;;;;;;0.93;0.70;;;8.30;64.50;;;7.47;60.28;96399.88;5036207;28;20829;-79
2024/03/29 06:59:58;;;;;;;1.33;0.70;;;8.40;64.20;;;7.50;59.75;96394.03;5031637;28;20501;-79
2024/03/29 07:02:25;;;;;;;0.70;0.53;;;8.50;64.20;;;7.70;59.21;96399.03;5043690;28;20476;-77
2024/03/29 07:04:53;;;;;;;1.10;0.80;;;8.60;63.90;;;7.48;58.78;96326.25;5048970;28;20477;-80
2024/03/29 07:07:20;;;;;;;1.03;0.80;;;8.80;64.20;;;7.93;58.14;96381.22;5040874;28;20484;-81
2024/03/29 07:09:47;;;;;;;0.87;0.67;;;8.80;63.40;;;7.90;58.24;96377.13;5042357;28;20485;-82
2024/03/29 07:12:14;;;;;;;0.90;0.67;;;8.90;63.30;;;8.30;58.08;96382.72;5040348;28;20471;-83
2024/03/29 07:14:43;;;;;;;0.90;0.90;;;9.00;63.40;;;8.67;56.79;96366.16;5030427;28;20838;-79
2024/03/29 07:17:10;;;;;;;0.80;0.70;;;9.50;63.00;;;8.90;55.31;96350.91;5043811;28;20484;-81
2024/03/29 07:19:37;;;;;;;0.87;0.80;;;9.80;62.20;;;9.46;54.03;96363.56;5044828;28;20481;-82
2024/03/29 07:22:05;;;;;;;1.70;0.80;;;10.00;60.70;;;9.41;54.22;96366.19;5041400;28;20472;-82
2024/03/29 07:24:32;;;;;;;0.93;0.60;;;10.10;60.10;;;9.31;53.71;96362.28;5051436;28;20765;-81
2024/03/29 07:26:59;;;;;;;1.17;0.97;;;10.20;59.60;;;9.34;54.47;96361.81;5038331;28;20538;-78
2024/03/29 07:29:27;;;;;;;0.90;0.70;;;10.00;59.90;;;9.14;54.79;96366.88;5061537;28;20489;-83
2024/03/29 07:31:55;;;;;;;1.33;0.80;;;9.90;60.60;;;8.81;54.05;96322.75;5036295;28;20531;-83
2024/03/29 07:34:25;;;;;;;0.60;0.50;;;10.00;59.20;;;9.16;53.75;96353.97;5028877;28;20985;-82
2024/03/29 07:36:55;;;;;;;1.20;1.00;;;10.00;59.10;;;9.42;53.60;96374.03;5034429;28;20551;-81
2024/03/29 07:39:22;;;;;;;0.90;0.60;;;10.30;58.80;;;9.63;51.75;96371.63;5031680;28;20498;-81
2024/03/29 07:41:50;;;;;;;1.33;0.90;;;10.50;57.80;;;9.53;51.91;96349.91;5032457;28;20472;-80
2024/03/29 07:44:17;;;;;;;1.90;0.50;;;10.60;57.40;;;9.81;51.06;96384.00;5046442;28;20477;-81
2024/03/29 07:46:46;;;;;;;0.80;0.80;;;10.60;57.00;;;9.87;50.97;96401.84;5029845;28;21347;-81
2024/03/29 07:49:15;;;;;;;1.00;0.60;;;10.80;56.80;;;10.19;52.92;96401.16;5031319;28;21086;-81
2024/03/29 07:51:42;;;;;;;0.80;0.80;;;10.90;58.00;;;9.93;51.11;96367.66;5043188;28;20874;-80
2024/03/29 07:54:10;;;;;;;1.40;0.60;;;10.90;56.40;;;10.37;49.76;96361.38;5046030;28;20480;-82
2024/03/29 07:56:37;;;;;;;0.90;0.60;;;11.20;56.70;;;10.43;49.62;96346.91;5048310;28;20472;-82
2024/03/29 07:59:04;;;;;;;0.90;0.60;;;11.40;56.30;;;10.47;49.51;96393.94;5046791;28;20560;-82
2024/03/29 08:01:31;;;;;;;1.70;0.80;;;11.40;55.60;;;10.76;48.24;96419.84;5048496;28;20473;-81
2024/03/29 08:03:59;;;;;;;0.67;0.57;;;11.60;55.30;;;10.49;49.06;96407.97;5043853;28;20526;-81
2024/03/29 08:06:29;;;;;;;0.70;0.60;;;11.50;54.80;;;10.75;48.74;96383.94;5048781;28;21129;-79
2024/03/29 08:08:56;;;;;;;1.13;0.63;;;11.60;55.10;;;10.91;48.79;96382.16;5047801;28;21063;-82
2024/03/29 08:11:23;;;;;;;0.90;0.60;;;11.70;54.90;;;11.51;47.29;96372.31;5063161;28;21025;-78
2024/03/29 08:13:50;;;;;;;1.50;0.80;;;12.10;54.80;;;11.38;46.90;96379.00;5058647;28;20470;-81
2024/03/29 08:16:19;;;;;;;1.00;0.80;;;12.20;54.00;;;11.30;47.00;96386.53;5052999;28;20995;-81
2024/03/29 08:18:47;;;;;;;1.23;0.67;;;12.20;53.90;;;11.03;47.68;96376.59;5045495;28;20481;-82
2024/03/29 08:21:14;;;;;;;0.80;0.80;;;12.00;53.90;;;11.43;47.34;96377.13;5045490;28;20495;-79
2024/03/29 08:23:46;;;;;;;2.00;0.80;;;12.20;54.00;;;11.73;46.83;96380.25;5043062;28;20540;-82
2024/03/29 08:26:14;;;;;;;1.97;0.60;;;12.50;53.90;;;12.34;45.99;96389.72;5045170;28;20478;-83
2024/03/29 08:28:41;;;;;;;1.67;0.80;;;12.80;53.90;;;11.74;46.29;96365.66;5041112;28;20484;-78
2024/03/29 08:31:09;;;;;;;0.80;0.80;;;12.60;53.10;;;12.39;45.65;96381.63;5060333;28;20473;-80
2024/03/29 08:33:38;;;;;;;1.33;0.73;;;12.90;53.30;;;12.31;46.13;96371.31;5046328;28;20552;-80
2024/03/29 08:36:06;;;;;;;0.90;0.73;;;13.00;53.40;;;11.62;46.20;96312.59;5042811;28;20469;-81
2024/03/29 08:38:33;;;;;;;0.90;0.70;;;12.80;52.90;;;11.23;47.14;96290.50;5045401;28;21229;-78
2024/03/29 08:41:02;;;;;;;1.27;0.90;;;12.50;53.00;;;11.80;47.15;96345.69;5043641;28;21003;-82
2024/03/29 08:43:29;;;;;;;1.53;0.70;;;12.60;53.50;;;11.68;47.48;96328.84;5042643;28;20476;-81
2024/03/29 08:45:57;;;;;;;0.70;0.60;;;12.60;53.70;;;11.94;47.10;96337.88;5038568;28;21116;-82
2024/03/29 08:48:25;;;;;;;0.53;0.53;;;12.60;53.60;;;11.94;47.37;96342.47;5027412;28;20466;-83
2024/03/29 08:50:52;;;;;;;0.80;0.80;;;12.70;53.60;;;11.88;47.49;96338.94;5035087;28;20820;-82
2024/03/29 08:53:21;;;;;;;1.17;1.07;;;12.70;53.80;;;11.79;47.98;96343.22;5028594;28;20486;-83
2024/03/29 08:55:49;;;;;;;1.03;0.60;;;12.60;53.90;;;11.58;48.72;96352.06;5036312;28;20485;-83
2024/03/29 08:58:19;;;;;;;1.33;0.77;;;12.40;54.00;;;11.30;49.36;96358.66;5035275;28;20485;-81
2024/03/29 09:00:55;;;;;;;1.40;0.67;;;12.20;54.30;;;11.14;50.39;96374.78;5032977;28;20486;-84
2024/03/29 09:03:22;;;;;;;0.87;0.50;;;12.00;54.50;;;10.94;52.71;96397.06;5026094;28;20523;-83
2024/03/29 09:05:50;;;;;;;0.90;0.60;;;11.90;55.90;;;10.70;55.65;96424.41;5033839;28;20474;-84
2024/03/29 09:08:18;;;;;;;1.93;0.77;;;11.60;57.60;;;10.60;57.20;96432.41;5030836;28;20480;-83
2024/03/29 09:10:45;;;;;;;1.03;0.73;;;11.50;58.90;;;10.56;58.19;96442.09;5028786;28;20498;-81
2024/03/29 09:13:12;;;;;;;3.07;0.77;;;11.40;59.90;;;10.26;57.52;96429.84;5045743;28;20480;-80
2024/03/29 09:15:42;;;;;;;1.00;0.60;;;11.10;59.40;;;10.09;59.54;96424.50;5044688;28;20481;-80
2024/03/29 09:18:19;;;;;;;0.97;0.70;;;11.00;60.40;;;9.92;59.85;96412.69;5050837;28;20481;-77
2024/03/29 09:20:46;;;;;;;0.90;0.60;;;10.90;61.10;;;9.83;62.78;96453.84;5049975;28;20485;-80
2024/03/29 09:23:17;;;;;;;1.10;0.80;;;10.80;62.80;;;9.57;65.35;96467.78;5050120;28;20487;-83
2024/03/29 09:25:44;;;;;;;1.33;0.77;;;10.50;64.60;;;9.06;67.53;96408.53;5043471;28;20469;-82
2024/03/29 09:28:11;;;;;;;2.43;1.00;;;10.40;66.30;;;9.30;67.05;96460.38;5035362;28;20469;-82
2024/03/29 09:30:38;;;;;;;2.90;0.90;;;10.30;66.20;;;9.17;68.10;96484.94;5041234;28;20492;-82
2024/03/29 09:33:09;;;;;;;2.73;0.93;;;10.10;66.80;;;9.10;70.80;96495.06;5032700;28;20491;-83
2024/03/29 09:35:37;;;;;;;2.00;0.80;;;10.00;68.90;;;9.10;71.72;96487.00;5038828;28;20475;-80
2024/03/29 09:38:05;;;;;;;0.80;0.80;;;10.00;70.00;;;9.34;70.18;96499.28;5037761;28;20512;-81
2024/03/29 09:40:34;;;;;;;2.20;0.93;;;10.20;70.90;;;9.21;71.29;96510.38;5039603;28;20852;-79
2024/03/29 09:43:03;;;;;;;0.97;0.70;;;10.20;71.90;;;9.61;71.70;96511.25;5041713;28;20582;-81
2024/03/29 09:45:36;;;;;;;1.80;1.00;;;10.40;72.10;;;9.90;70.99;96514.66;5027365;28;20561;-82
2024/03/29 09:48:09;;;;;;;2.20;0.90;;;10.50;72.40;;;9.76;71.03;96507.97;5041856;28;20478;-80
2024/03/29 09:50:36;;;;;;;1.87;1.23;;;10.60;72.80;;;9.90;72.63;96508.47;5034907;28;20560;-81
2024/03/29 09:53:05;;;;;;;3.27;1.40;;;10.70;73.40;;;10.04;71.77;96498.94;5035452;28;21389;-81
2024/03/29 09:55:33;;;;;;;0.90;0.83;;;10.80;73.50;;;10.17;71.71;96451.88;5037904;28;20477;-82
2024/03/29 09:58:03;;;;;;;2.00;1.73;;;11.10;74.10;;;9.72;72.10;96409.75;5044537;28;20644;-82
2024/03/29 10:00:30;;;;;;;2.87;1.70;;;11.10;73.80;;;10.55;72.11;96489.88;5039023;28;20499;-82
2024/03/29 10:02:58;;;;;;;1.50;1.27;;;11.30;74.50;;;10.35;72.63;96502.03;5039589;28;20489;-82
2024/03/29 10:05:28;;;;;;;1.30;1.20;;;11.20;74.50;;;10.95;71.57;96501.34;5027561;28;20485;-82
2024/03/29 10:07:56;;;;;;;4.93;1.40;;;11.50;75.20;;;11.05;71.63;96516.84;5036422;28;21005;-82
2024/03/29 10:10:24;;;;;;;2.40;1.27;;;11.70;75.10;;;10.91;73.85;96522.66;5034147;28;20494;-81
2024/03/29 10:12:51;;;;;;;1.53;1.30;;;11.80;75.80;;;11.00;73.19;96496.03;5044575;28;20522;-84
2024/03/29 10:15:21;;;;;;;0.70;0.70;;;11.80;75.60;;;11.30;72.79;96507.38;5034896;28;20486;-83
2024/03/29 10:17:49;;;;;;;3.43;1.77;;;12.00;76.40;;;10.92;73.53;96499.19;5040790;28;20475;-80
2024/03/29 10:20:18;;;;;;;1.57;1.00;;;12.00;75.60;;;10.75;74.84;96486.59;5032790;28;21053;-83
2024/03/29 10:22:47;;;;;;;1.07;0.70;;;11.70;76.10;;;10.64;75.86;96487.53;5027857;28;20520;-82
2024/03/29 10:25:15;;;;;;;1.30;0.80;;;11.50;76.90;;;10.56;76.92;96475.28;5036091;28;20532;-84
2024/03/29 10:27:43;;;;;;;1.10;1.00;;;11.40;77.40;;;9.81;79.32;96408.25;5042317;28;20484;-78
2024/03/29 10:30:17;;;;;;;1.60;1.20;;;11.20;77.90;;;10.12;78.70;96443.72;5033800;28;20481;-84
2024/03/29 10:32:45;;;;;;;2.33;1.27;;;11.00;78.10;;;10.68;76.95;96418.44;5032619;28;20550;-79
2024/03/29 10:35:12;;;;;;;1.40;1.00;;;11.30;78.40;;;11.14;74.73;96420.72;5030973;28;20976;-83
2024/03/29 10:37:40;;;;;;;1.43;1.00;;;11.60;78.00;;;11.55;74.67;96460.78;5038799;28;20868;-80
2024/03/29 10:40:15;;;;;;;3.10;1.40;;;12.00;78.30;;;11.46;73.86;96451.53;5045509;28;20466;-81
2024/03/29 10:42:44;;;;;;;1.87;1.03;;;12.30;77.60;;;11.56;74.84;96473.22;5039870;28;20560;-78
2024/03/29 10:45:11;;;;;;;1.20;1.10;;;12.20;78.20;;;11.73;75.05;96469.53;5032522;28;20826;-82
2024/03/29 10:47:41;;;;;;;1.47;1.27;;;12.30;78.30;;;12.35;71.46;96459.06;5027608;28;20478;-82
2024/03/29 10:50:11;;;;;;;1.37;1.27;;;12.70;77.80;;;12.41;72.06;96476.16;5031433;28;20489;-82
2024/03/29 10:52:40;;;;;;;1.50;1.40;;;13.00;77.80;;;12.26;72.02;96469.59;5029444;28;20581;-82
2024/03/29 10:55:11;;;;;;;1.90;1.50;;;13.00;77.30;;;12.52;71.75;96458.06;5033263;28;20503;-80
2024/03/29 10:57:43;;;;;;;2.70;1.53;;;13.00;77.50;;;11.29;75.45;96395.69;5025694;28;20855;-81
2024/03/29 11:00:18;;;;;;;1.90;1.20;;;12.70;77.80;;;11.74;74.88;96454.94;5034399;28;20505;-81
2024/03/29 11:02:51;;;;;;;3.00;1.43;;;12.60;78.10;;;11.45;77.03;96456.09;5030673;28;20461;-82
2024/03/29 11:05:20;;;;;;;2.90;1.37;;;12.20;78.80;;;11.64;76.96;96447.56;5027969;28;20521;-83
2024/03/29 11:07:48;;;;;;;2.00;1.50;;;12.30;79.30;;;11.17;79.73;96432.94;5029805;28;20485;-82
2024/03/29 11:10:26;;;;;;;1.37;1.27;;;12.10;80.00;;;11.22;78.57;96435.66;5039459;28;20500;-82
2024/03/29 11:13:03;;;;;;;2.20;1.77;;;12.10;80.10;;;11.62;77.65;96439.75;5035472;28;20486;-81
2024/03/29 11:15:32;;;;;;;1.70;1.53;;;12.20;80.10;;;11.53;77.32;96426.97;5037657;28;21061;-82
2024/03/29 11:18:00;;;;;;;1.90;1.73;;;12.20;79.80;;;11.49;76.62;96432.06;5038518;28;20478;-83
2024/03/29 11:20:34;;;;;;;1.43;1.23;;;12.10;79.60;;;11.10;78.06;96432.31;5026667;28;20549;-82
2024/03/29 11:23:10;;;;;;;2.40;1.50;;;11.80;79.70;;;10.83;78.95;96425.03;5024939;28;21116;-81
2024/03/29 11:25:44;;;;;;;2.77;1.90;;;11.80;79.70;;;10.72;79.32;96411.47;5037123;28;20534;-80
2024/03/29 11:28:15;;;;;;;1.60;1.50;;;11.60;79.80;;;10.76;80.51;96412.56;5033319;28;21014;-82
2024/03/29 11:30:47;;;;;;;3.50;1.40;;;11.60;80.60;;;10.86;78.62;96375.94;5050520;28;20477;-79
2024/03/29 11:33:30;;;;;;;1.47;1.37;;;11.70;80.40;;;10.96;77.55;96386.78;5057115;28;20476;-78
2024/03/29 11:35:58;;;;;;;1.73;1.50;;;11.70;79.60;;;11.01;77.15;96388.72;5051796;28;20503;-81
2024/03/29 11:38:34;;;;;;;3.50;1.60;;;11.70;79.40;;;11.29;75.66;96378.66;5033449;28;20486;-82
2024/03/29 11:41:08;;;;;;;2.20;1.00;;;12.00;79.40;;;10.96;76.05;96300.34;5036731;28;20477;-80
2024/03/29 11:43:37;;;;;;;2.20;1.53;;;12.00;79.30;;;12.02;73.91;96378.00;5038855;28;20473;-83
2024/03/29 11:46:07;;;;;;;1.50;1.40;;;12.40;79.10;;;12.29;73.09;96397.84;5035616;28;20592;-83
2024/03/29 11:48:35;;;;;;;1.43;1.10;;;12.80;78.60;;;12.60;71.25;96408.75;5031972;28;20975;-82
2024/03/29 11:51:04;;;;;;;1.43;1.20;;;13.10;78.10;;;12.92;70.74;96426.69;5053360;28;20509;-83
2024/03/29 11:53:32;;;;;;;1.87;1.60;;;13.50;78.20;;;12.52;69.65;96423.63;5045887;28;20507;-83
2024/03/29 11:56:00;;;;;;;2.17;1.77;;;13.40;76.50;;;12.39;71.57;96414.13;5041073;28;20532;-82
2024/03/29 11:58:30;;;;;;;3.80;2.00;;;13.20;77.30;;;12.92;69.62;96410.41;5039067;28;20840;-84
2024/03/29 12:01:00;;;;;;;2.30;1.77;;;13.50;77.40;;;12.40;70.00;96353.47;5040873;28;20543;-81
2024/03/29 12:03:30;;;;;;;1.80;1.70;;;13.50;76.90;;;12.54;70.27;96404.44;5038124;28;20524;-81
2024/03/29 12:06:01;;;;;;;5.00;1.90;;;13.30;76.50;;;12.46;70.58;96413.88;5047134;28;20478;-82
2024/03/29 12:08:30;;;;;;;2.90;2.00;;;13.20;76.70;;;12.54;69.93;96399.00;5048365;28;20501;-78
2024/03/29 12:10:59;;;;;;;3.23;2.30;;;13.30;76.60;;;12.58;69.43;96395.47;5034055;28;20575;-83
2024/03/29 12:13:26;;;;;;;3.50;2.03;;;13.30;76.40;;;12.63;68.60;96370.28;5036010;28;20532;-83
2024/03/29 12:15:56;;;;;;;3.13;2.50;;;13.30;75.90;;;12.61;68.79;96370.56;5034944;28;20479;-80
2024/03/29 12:18:25;;;;;;;3.23;2.67;;;13.30;75.90;;;12.62;69.71;96349.69;5032440;28;21094;-82
2024/03/29 12:20:53;;;;;;;3.33;3.00;;;13.30;76.30;;;12.79;68.25;96365.72;5027385;28;20975;-82
2024/03/29 12:23:22;;;;;;;4.03;2.77;;;13.50;75.80;;;12.98;66.92;96376.00;5033861;28;20598;-82